^^
Station Historical Data
Daily Summary for January 1, 2018 Units:  English    Metric   Both
« Previous Day
Next Day »
Daily Weekly Monthly Yearly Custom
  High: Low: Average:
Temperature: TemperatureC °F -0.4 °F 0.5 °F
Dew Point: DewpointC °F -1.9 °F -0.6 °F
Humidity: Humidity% 90% 92%
Wind Speed: WindSpeedKMHmph 0.0mph 0.9mph
Wind Gust: WindSpeedGustKMHmph - -
Wind- - SE
Pressure: PressurehPa in 988.4 in -
Precipitation: 4.6 in    
Historical Graphs
 
 
Tabular Data for January 1, 2018
Time Temperature Dew Point Pressure Wind Wind Speed Wind Gust Humidity Rainfall Rate (Hourly) solar Conditions
TemperatureC °F DewpointC °F PressurehPa in Calm     Humidity% HourlyPrecipMM in SoftwareType W/m2 Conditions
00:01 -0.4 °F -1.7 °F 1001.2 in SE 2.6 mph 11.3 mph 91% 0.0 in WeatherDisplay:10.37 W/m2 FEW
00:05 -0.4 °F -1.8 °F 1000.9 in SE 3.4 mph 7.4 mph 90% 0.0 in WeatherDisplay:10.37 W/m2 FEW
00:08 -0.4 °F -1.8 °F 1000.9 in Calm   3.7 mph 90% 0.0 in WeatherDisplay:10.37 W/m2 FEW
00:11 -0.3 °F -1.8 °F 1000.9 in SE 3.4 mph 5.6 mph 90% 0.0 in WeatherDisplay:10.37 W/m2 FEW
00:16 -0.3 °F -1.8 °F 1000.9 in Calm     90% 0.0 in WeatherDisplay:10.37 W/m2 FEW
00:21 -0.3 °F -1.8 °F 1000.6 in ESE 2.3 mph 11.1 mph 90% 0.0 in WeatherDisplay:10.37 W/m2 FEW
00:26 -0.3 °F -1.6 °F 1000.6 in Calm   5.6 mph 91% 0.0 in WeatherDisplay:10.37 W/m2 FEW
00:31 -0.4 °F -1.7 °F 1000.6 in ESE 1.0 mph 5.6 mph 91% 0.0 in WeatherDisplay:10.37 W/m2 FEW
00:36 -0.4 °F -1.7 °F 1000.6 in South 0.2 mph 9.3 mph 91% 0.0 in WeatherDisplay:10.37 W/m2 FEW
00:41 -0.4 °F -1.8 °F 1000.6 in Calm   5.6 mph 90% 0.0 in WeatherDisplay:10.37 W/m2 FEW
00:45 -0.4 °F -1.8 °F 1000.2 in SSE 5.0 mph 16.7 mph 90% 0.0 in WeatherDisplay:10.37 W/m2 FEW
00:50 -0.4 °F -1.8 °F 1000.2 in Calm     90% 0.0 in WeatherDisplay:10.37 W/m2 FEW
00:52 -0.4 °F -1.8 °F 1000.2 in Calm   4.8 mph 90% 0.0 in WeatherDisplay:10.37 W/m2 FEW
00:57 -0.4 °F -1.8 °F 1000.2 in Calm   5.6 mph 90% 0.0 in WeatherDisplay:10.37 W/m2 FEW
01:02 -0.4 °F -1.8 °F 1000.2 in SE 4.5 mph 7.4 mph 90% 0.0 in WeatherDisplay:10.37 W/m2 FEW
01:04 -0.4 °F -1.8 °F 1000.2 in ESE 2.7 mph 5.6 mph 90% 0.0 in WeatherDisplay:10.37 W/m2 FEW
01:09 -0.4 °F -1.9 °F 1000.2 in SE 1.9 mph 6.4 mph 90% 0.0 in WeatherDisplay:10.37 W/m2 FEW
01:14 -0.4 °F -1.8 °F 999.9 in SE 2.9 mph 5.6 mph 90% 0.0 in WeatherDisplay:10.37 W/m2 FEW
01:19 -0.4 °F -1.8 °F 999.9 in East 2.3 mph 11.1 mph 90% 0.0 in WeatherDisplay:10.37 W/m2 FEW
01:24 -0.4 °F -1.8 °F 999.9 in Calm   3.7 mph 90% 0.0 in WeatherDisplay:10.37 W/m2 FEW
01:29 -0.4 °F -1.8 °F 999.9 in SE 0.5 mph 3.2 mph 90% 0.0 in WeatherDisplay:10.37 W/m2 FEW
01:34 -0.4 °F -1.8 °F 999.9 in Calm   3.7 mph 90% 0.0 in WeatherDisplay:10.37 W/m2 FEW
01:39 -0.4 °F -1.8 °F 999.5 in ESE 0.5 mph 3.7 mph 90% 0.0 in WeatherDisplay:10.37 W/m2 FEW
01:43 -0.4 °F -1.8 °F 999.5 in East 1.1 mph 9.7 mph 90% 0.0 in WeatherDisplay:10.37 W/m2 FEW
01:45 -0.3 °F -1.8 °F 999.5 in ESE 3.7 mph 5.6 mph 90% 0.0 in WeatherDisplay:10.37 W/m2 FEW
01:50 -0.3 °F -1.8 °F 999.5 in SE 2.7 mph 8.0 mph 90% 0.0 in WeatherDisplay:10.37 W/m2 FEW
01:53 -0.3 °F -1.8 °F 999.2 in ESE 4.0 mph 9.3 mph 90% 0.0 in WeatherDisplay:10.37 W/m2 FEW
01:58 -0.3 °F -1.8 °F 999.2 in SE 2.1 mph 5.6 mph 90% 0.0 in WeatherDisplay:10.37 W/m2 FEW
02:03 -0.3 °F -1.7 °F 999.2 in Calm   3.7 mph 90% 0.0 in WeatherDisplay:10.37 W/m2 FEW
02:08 -0.3 °F -1.7 °F 999.2 in East 0.3 mph 5.6 mph 90% 0.0 in WeatherDisplay:10.37 W/m2 FEW
02:13 -0.2 °F -1.7 °F 998.9 in ESE 6.4 mph 13.0 mph 90% 0.0 in WeatherDisplay:10.37 W/m2 FEW
02:15 -0.2 °F -1.7 °F 998.9 in South 4.0 mph 9.3 mph 90% 0.0 in WeatherDisplay:10.37 W/m2 FEW
02:20 -0.2 °F -1.6 °F 998.9 in SE 3.9 mph 5.6 mph 90% 0.0 in WeatherDisplay:10.37 W/m2 FEW
02:25 -0.1 °F -1.4 °F 998.9 in SE 5.3 mph 6.4 mph 91% 0.0 in WeatherDisplay:10.37 W/m2 FEW
02:30 -0.1 °F -1.5 °F 998.9 in SSE 4.3 mph 11.1 mph 90% 0.0 in WeatherDisplay:10.37 W/m2 FEW
02:33 -0.1 °F -1.3 °F 998.9 in East 3.4 mph 7.4 mph 91% 0.0 in WeatherDisplay:10.37 W/m2 FEW
02:34 -0.1 °F -1.3 °F 998.5 in SSE 4.3 mph 5.6 mph 91% 0.0 in WeatherDisplay:10.37 W/m2 FEW
02:40 0.0 °F -1.3 °F 998.5 in ESE 4.7 mph 9.3 mph 91% 0.0 in WeatherDisplay:10.37 W/m2 FEW
02:45 0.1 °F -1.2 °F 998.5 in East 6.6 mph 17.7 mph 91% 0.0 in WeatherDisplay:10.37 W/m2 FEW
02:50 0.1 °F -1.2 °F 998.2 in East 5.0 mph 9.7 mph 91% 0.0 in WeatherDisplay:10.37 W/m2 FEW
02:51 0.1 °F -1.2 °F 998.2 in ESE 6.6 mph 9.3 mph 91% 0.0 in WeatherDisplay:10.37 W/m2 FEW
02:56 0.1 °F -1.2 °F 998.2 in SE 2.4 mph 13.0 mph 91% 0.0 in WeatherDisplay:10.37 W/m2 FEW
02:57 0.1 °F -1.2 °F 998.2 in ESE 3.7 mph 7.4 mph 91% 0.0 in WeatherDisplay:10.37 W/m2 FEW
03:03 0.1 °F -1.1 °F 998.2 in East 3.2 mph 5.6 mph 92% 0.0 in WeatherDisplay:10.37 W/m2 FEW
03:08 0.1 °F -1.1 °F 998.2 in SE 3.1 mph 7.4 mph 92% 0.0 in WeatherDisplay:10.37 W/m2 FEW
03:13 0.1 °F -1.1 °F 997.9 in ENE 2.3 mph 7.4 mph 92% 0.0 in WeatherDisplay:10.37 W/m2 FEW
03:16 0.1 °F -1.1 °F 998.2 in East 5.3 mph 11.1 mph 92% 0.0 in WeatherDisplay:10.37 W/m2 FEW
03:22 0.1 °F -1.1 °F 998.2 in Calm     92% 0.0 in WeatherDisplay:10.37 W/m2 FEW
03:27 0.1 °F -1.1 °F 998.2 in Calm     92% 0.0 in WeatherDisplay:10.37 W/m2 FEW
03:29 0.1 °F -0.9 °F 998.2 in SE 5.1 mph 9.3 mph 93% 0.0 in WeatherDisplay:10.37 W/m2 FEW
03:34 0.1 °F -0.9 °F 998.2 in East 3.9 mph 7.4 mph 93% 0.0 in WeatherDisplay:10.37 W/m2 FEW
03:36 0.1 °F -0.9 °F 998.2 in Calm   5.6 mph 93% 0.0 in WeatherDisplay:10.37 W/m2 FEW
03:42 0.1 °F -0.9 °F 998.2 in ESE 4.5 mph 11.1 mph 93% 0.0 in WeatherDisplay:10.37 W/m2 FEW
03:44 0.1 °F -0.9 °F 998.2 in SE 1.1 mph 5.6 mph 93% 0.0 in WeatherDisplay:10.37 W/m2 FEW
03:49 0.1 °F -0.9 °F 998.2 in Calm     93% 0.0 in WeatherDisplay:10.37 W/m2 FEW
03:54 0.0 °F -1.0 °F 997.9 in SE 0.5 mph 3.7 mph 93% 0.0 in WeatherDisplay:10.37 W/m2 FEW
03:55 0.0 °F -1.0 °F 997.9 in SE 0.3 mph 3.2 mph 93% 0.0 in WeatherDisplay:10.37 W/m2 FEW
04:00 0.0 °F -1.0 °F 997.9 in SE 0.3 mph 1.9 mph 93% 0.3 in WeatherDisplay:10.37 W/m2 RA
04:04 0.0 °F -0.8 °F 997.5 in Calm     94% 0.3 in WeatherDisplay:10.37 W/m2 RA
04:09 0.0 °F -0.8 °F 997.5 in Calm   1.9 mph 94% 0.5 in WeatherDisplay:10.37 W/m2 RA
04:10 0.0 °F -0.8 °F 997.5 in ESE 0.3 mph 1.6 mph 94% 0.5 in WeatherDisplay:10.37 W/m2 RA
04:15 0.0 °F -0.8 °F 997.2 in SE 0.5 mph 3.7 mph 94% 0.5 in WeatherDisplay:10.37 W/m2 RA
04:21 0.0 °F -0.8 °F 997.2 in SE 1.1 mph 5.6 mph 94% 0.8 in WeatherDisplay:10.37 W/m2 RA
04:26 0.0 °F -0.8 °F 997.2 in SE 5.0 mph 14.5 mph 94% 1.0 in WeatherDisplay:10.37 W/m2 RA
04:31 0.1 °F -0.8 °F 997.2 in SE 3.7 mph 9.3 mph 94% 1.0 in WeatherDisplay:10.37 W/m2 RA
04:33 0.1 °F -0.8 °F 996.8 in SE 8.2 mph 14.8 mph 94% 1.3 in WeatherDisplay:10.37 W/m2 RA
04:39 0.1 °F -0.8 °F 996.8 in SE 0.5 mph 3.7 mph 94% 1.3 in WeatherDisplay:10.37 W/m2 RA
04:44 0.1 °F -0.8 °F 996.8 in ESE 0.8 mph 3.7 mph 94% 1.5 in WeatherDisplay:10.37 W/m2 RA
04:45 0.1 °F -0.8 °F 996.8 in SE 3.2 mph 5.6 mph 94% 1.5 in WeatherDisplay:10.37 W/m2 RA
04:51 0.1 °F -0.8 °F 996.8 in SE 2.1 mph 5.6 mph 94% 1.5 in WeatherDisplay:10.37 W/m2 RA
04:58 0.1 °F -0.8 °F 996.8 in Calm   5.6 mph 94% 1.5 in WeatherDisplay:10.37 W/m2 RA
05:04 0.1 °F -0.9 °F 996.8 in ESE 0.2 mph 1.9 mph 93% 1.5 in WeatherDisplay:10.37 W/m2 RA
05:09 0.1 °F -0.9 °F 996.8 in SE 4.2 mph 7.4 mph 93% 1.5 in WeatherDisplay:10.37 W/m2 RA
05:14 0.1 °F -0.9 °F 996.8 in SE 3.2 mph 5.6 mph 93% 1.5 in WeatherDisplay:10.37 W/m2 RA
05:15 0.1 °F -0.9 °F 996.8 in ESE 3.5 mph 6.4 mph 93% 1.5 in WeatherDisplay:10.37 W/m2 RA
05:20 0.1 °F -0.9 °F 996.5 in SE 1.0 mph 1.6 mph 93% 1.3 in WeatherDisplay:10.37 W/m2 RA
05:25 0.1 °F -0.9 °F 996.5 in Calm     93% 1.3 in WeatherDisplay:10.37 W/m2 RA
05:26 0.1 °F -0.9 °F 996.5 in Calm     93% 1.3 in WeatherDisplay:10.37 W/m2 RA
05:31 0.1 °F -0.9 °F 996.5 in SE 0.6 mph 3.7 mph 93% 1.3 in WeatherDisplay:10.37 W/m2 RA
05:36 0.1 °F -0.9 °F 996.5 in SE 1.1 mph 5.6 mph 93% 1.0 in WeatherDisplay:10.37 W/m2 FEW
05:41 0.1 °F -0.9 °F 996.5 in Calm     93% 1.0 in WeatherDisplay:10.37 W/m2 RA
05:44 0.1 °F -0.9 °F 996.5 in SE 4.2 mph 7.4 mph 93% 1.0 in WeatherDisplay:10.37 W/m2 RA
05:46 0.1 °F -0.9 °F 996.5 in SE 0.5 mph 3.7 mph 93% 1.0 in WeatherDisplay:10.37 W/m2 RA
05:50 0.1 °F -0.9 °F 996.2 in Calm     93% 1.0 in WeatherDisplay:10.37 W/m2 FEW
05:52 0.1 °F -0.9 °F 996.2 in Calm     93% 0.8 in WeatherDisplay:10.37 W/m2 FEW
05:57 0.1 °F -0.9 °F 996.2 in Calm     93% 0.8 in WeatherDisplay:10.37 W/m2 FEW
06:02 0.1 °F -0.9 °F 996.2 in Calm   1.9 mph 93% 0.8 in WeatherDisplay:10.37 W/m2 RA
06:05 0.1 °F -0.9 °F 995.8 in Calm     93% 0.8 in WeatherDisplay:10.37 W/m2 RA
06:10 0.1 °F -0.9 °F 995.8 in Calm     93% 0.8 in WeatherDisplay:10.37 W/m2 FEW
06:15 0.1 °F -0.9 °F 995.8 in Calm   3.7 mph 93% 0.5 in WeatherDisplay:10.37 W/m2 FEW
06:20 0.1 °F -0.9 °F 995.8 in Calm     93% 0.5 in WeatherDisplay:10.37 W/m2 FEW
06:23 0.1 °F -0.9 °F 995.8 in Calm     93% 0.5 in WeatherDisplay:10.37 W/m2 RA
06:28 0.1 °F -0.9 °F 995.8 in Calm     93% 0.5 in WeatherDisplay:10.37 W/m2 RA
06:31 0.1 °F -0.9 °F 995.8 in Calm     93% 0.5 in WeatherDisplay:10.37 W/m2 RA
06:36 0.1 °F -0.9 °F 995.5 in SE 3.2 mph 5.6 mph 93% 0.5 in WeatherDisplay:10.37 W/m2 FEW
06:41 0.1 °F -0.9 °F 995.5 in Calm     93% 0.5 in WeatherDisplay:10.37 W/m2 FEW
06:46 0.1 °F -0.9 °F 995.5 in Calm     93% 0.5 in WeatherDisplay:10.37 W/m2 FEW
06:50 0.1 °F -0.9 °F 995.5 in Calm     93% 0.5 in WeatherDisplay:10.37 W/m2 FEW
06:55 0.1 °F -0.9 °F 995.5 in Calm     93% 0.5 in WeatherDisplay:10.37 W/m2 FEW
07:00 0.1 °F -0.9 °F 995.1 in SE 1.0 mph 3.7 mph 93% 0.3 in WeatherDisplay:10.37 W/m2 FEW
07:05 0.1 °F -0.9 °F 995.5 in Calm     93% 0.3 in WeatherDisplay:10.37 W/m2 FEW
07:07 0.1 °F -0.9 °F 995.5 in Calm     93% 0.3 in WeatherDisplay:10.37 W/m2 FEW
07:12 0.2 °F -0.8 °F 995.5 in Calm   1.9 mph 93% 0.3 in WeatherDisplay:10.37 W/m2 FEW
07:17 0.2 °F -0.8 °F 995.1 in SE 0.2 mph 5.6 mph 93% 0.3 in WeatherDisplay:10.37 W/m2 FEW
07:22 0.2 °F -0.8 °F 995.1 in Calm     93% 0.0 in WeatherDisplay:10.37 W/m2 FEW
07:27 0.2 °F -0.8 °F 995.1 in SE 2.6 mph 3.7 mph 93% 0.0 in WeatherDisplay:10.37 W/m2 FEW
07:32 0.2 °F -0.8 °F 995.1 in Calm     93% 0.0 in WeatherDisplay:10.37 W/m2 FEW
07:37 0.2 °F -0.8 °F 995.1 in Calm     93% 0.0 in WeatherDisplay:10.37 W/m2 FEW
07:42 0.2 °F -0.8 °F 995.1 in Calm   5.6 mph 93% 0.0 in WeatherDisplay:10.37 W/m2 FEW
07:43 0.2 °F -0.8 °F 995.1 in Calm     93% 0.0 in WeatherDisplay:10.37 W/m2 FEW
07:48 0.2 °F -0.8 °F 994.8 in SE 1.4 mph   93% 0.0 in WeatherDisplay:10.37 W/m2 FEW
07:53 0.3 °F -0.7 °F 994.8 in Calm     93% 0.0 in WeatherDisplay:10.37 W/m2 FEW
07:58 0.3 °F -0.7 °F 994.8 in SE 0.3 mph   93% 0.0 in WeatherDisplay:10.37 W/m2 FEW
08:02 0.3 °F -0.7 °F 994.8 in Calm     93% 0.0 in WeatherDisplay:10.37 W/m2 FEW
08:07 0.3 °F -0.7 °F 994.8 in Calm     93% 0.0 in WeatherDisplay:10.37 W/m2 FEW
08:09 0.3 °F -0.7 °F 994.8 in Calm     93% 0.0 in WeatherDisplay:10.37 W/m2 FEW
08:10 0.3 °F -0.7 °F 994.8 in SSE 1.0 mph 5.6 mph 93% 0.0 in WeatherDisplay:10.37 W/m2 FEW
08:15 0.3 °F -0.7 °F 994.8 in Calm     93% 0.0 in WeatherDisplay:10.37 W/m2 FEW
08:20 0.3 °F -0.7 °F 994.8 in Calm     93% 0.0 in WeatherDisplay:10.37 W/m2 FEW
08:25 0.3 °F -0.7 °F 994.8 in Calm     93% 0.0 in WeatherDisplay:10.37 W/m2 FEW
08:30 0.3 °F -0.7 °F 994.8 in Calm     93% 0.0 in WeatherDisplay:10.37 W/m2 FEW
08:35 0.3 °F -0.7 °F 994.8 in Calm     93% 0.0 in WeatherDisplay:10.37 W/m2 FEW
08:37 0.3 °F -0.7 °F 994.8 in SSE 0.2 mph 1.9 mph 93% 0.0 in WeatherDisplay:10.37 W/m2 FEW
08:42 0.4 °F -0.6 °F 994.8 in Calm     93% 0.0 in WeatherDisplay:10.37 W/m2 FEW
08:47 0.4 °F -0.6 °F 994.8 in SSE 1.0 mph 5.6 mph 93% 0.0 in WeatherDisplay:10.37 W/m2 FEW
08:52 0.4 °F -0.6 °F 994.8 in Calm     93% 0.0 in WeatherDisplay:10.37 W/m2 FEW
08:54 0.4 °F -0.6 °F 994.8 in Calm     93% 0.0 in WeatherDisplay:10.37 W/m2 FEW
08:59 0.4 °F -0.6 °F 994.8 in SSE 1.0 mph 3.2 mph 93% 0.0 in WeatherDisplay:10.37 W/m2 FEW
09:03 0.4 °F -0.6 °F 994.8 in SSE 0.5 mph 5.6 mph 93% 0.0 in WeatherDisplay:10.37 W/m2 FEW
09:08 0.4 °F -0.6 °F 994.8 in Calm     93% 0.0 in WeatherDisplay:10.37 W/m2 FEW
09:13 0.4 °F -0.6 °F 994.8 in SSE 1.1 mph 5.6 mph 93% 0.0 in WeatherDisplay:10.37 W/m2 FEW
09:18 0.4 °F -0.6 °F 994.5 in Calm     93% 0.0 in WeatherDisplay:10.37 W/m2 FEW
09:23 0.5 °F -0.5 °F 994.5 in Calm     93% 0.0 in WeatherDisplay:10.37 W/m2 FEW
09:28 0.5 °F -0.5 °F 994.5 in Calm     93% 0.0 in WeatherDisplay:10.37 W/m2 FEW
09:33 0.5 °F -0.5 °F 994.5 in Calm     93% 0.0 in WeatherDisplay:10.37 W/m2 FEW
09:38 0.5 °F -0.5 °F 994.5 in Calm     93% 0.0 in WeatherDisplay:10.37 W/m2 FEW
09:39 0.5 °F -0.5 °F 994.5 in Calm     93% 0.0 in WeatherDisplay:10.37 W/m2 FEW
09:44 0.5 °F -0.5 °F 994.5 in Calm     93% 0.0 in WeatherDisplay:10.37 W/m2 FEW
09:45 0.5 °F -0.5 °F 994.5 in Calm     93% 0.0 in WeatherDisplay:10.37 W/m2 FEW
09:50 0.5 °F -0.5 °F 994.5 in Calm   1.6 mph 93% 0.0 in WeatherDisplay:10.37 W/m2 FEW
09:56 0.5 °F -0.5 °F 994.5 in Calm     93% 0.0 in WeatherDisplay:10.37 W/m2 FEW
10:01 0.5 °F -0.5 °F 994.5 in Calm     93% 0.0 in WeatherDisplay:10.37 W/m2 FEW
10:06 0.5 °F -0.5 °F 994.5 in Calm     93% 0.0 in WeatherDisplay:10.37 W/m2 FEW
10:11 0.5 °F -0.5 °F 994.1 in SSE 2.6 mph 5.6 mph 93% 0.0 in WeatherDisplay:10.37 W/m2 FEW
10:16 0.6 °F -0.4 °F 994.5 in Calm     93% 0.0 in WeatherDisplay:10.37 W/m2 FEW
10:22 0.6 °F -0.4 °F 994.5 in Calm     93% 0.0 in WeatherDisplay:10.37 W/m2 FEW
10:27 0.6 °F -0.4 °F 994.5 in SSE 0.2 mph 1.9 mph 93% 0.0 in WeatherDisplay:10.37 W/m2 FEW
10:32 0.6 °F -0.4 °F 994.5 in Calm     93% 0.0 in WeatherDisplay:10.37 W/m2 FEW
10:37 0.6 °F -0.4 °F 994.5 in Calm     93% 0.0 in WeatherDisplay:10.37 W/m2 FEW
10:42 0.6 °F -0.4 °F 994.5 in Calm     93% 0.0 in WeatherDisplay:10.37 W/m2 FEW
10:47 0.6 °F -0.4 °F 994.5 in Calm     93% 0.0 in WeatherDisplay:10.37 W/m2 FEW
10:52 0.6 °F -0.4 °F 994.5 in SSE 1.3 mph 3.2 mph 93% 0.0 in WeatherDisplay:10.37 W/m2 FEW
10:54 0.6 °F -0.4 °F 994.5 in Calm   1.9 mph 93% 0.0 in WeatherDisplay:10.37 W/m2 FEW
10:59 0.6 °F -0.4 °F 994.5 in Calm     93% 0.0 in WeatherDisplay:10.37 W/m2 FEW
11:05 0.6 °F -0.4 °F 994.5 in Calm   1.9 mph 93% 0.0 in WeatherDisplay:10.37 W/m2 FEW
11:10 0.6 °F -0.4 °F 994.5 in Calm     93% 0.0 in WeatherDisplay:10.37 W/m2 FEW
11:15 0.6 °F -0.4 °F 994.1 in SSE 1.4 mph 3.7 mph 93% 0.0 in WeatherDisplay:10.37 W/m2 FEW
11:18 0.6 °F -0.4 °F 994.1 in SSE 1.8 mph 5.6 mph 93% 0.0 in WeatherDisplay:10.37 W/m2 FEW
11:21 0.6 °F -0.4 °F 994.1 in Calm     93% 0.0 in WeatherDisplay:10.37 W/m2 FEW
11:26 0.7 °F -0.3 °F 994.1 in Calm   3.7 mph 93% 0.0 in WeatherDisplay:10.37 W/m2 FEW
11:29 0.7 °F -0.3 °F 994.1 in Calm     93% 0.0 in WeatherDisplay:10.37 W/m2 FEW
11:34 0.6 °F -0.4 °F 994.1 in SSE 1.1 mph 3.7 mph 93% 0.0 in WeatherDisplay:10.37 W/m2 FEW
11:39 0.7 °F -0.3 °F 994.1 in SSE 0.3 mph 5.6 mph 93% 0.0 in WeatherDisplay:10.37 W/m2 FEW
11:44 0.7 °F -0.3 °F 993.8 in Calm     93% 0.0 in WeatherDisplay:10.37 W/m2 FEW
11:49 0.7 °F -0.3 °F 993.8 in Calm     93% 0.0 in WeatherDisplay:10.37 W/m2 FEW
11:54 0.7 °F -0.3 °F 993.8 in Calm     93% 0.0 in WeatherDisplay:10.37 W/m2 FEW
11:59 0.7 °F -0.3 °F 993.8 in SE 1.6 mph 5.6 mph 93% 0.0 in WeatherDisplay:10.37 W/m2 FEW
12:00 0.7 °F -0.3 °F 993.8 in Calm   3.7 mph 93% 0.0 in WeatherDisplay:10.37 W/m2 FEW
12:06 0.7 °F -0.3 °F 993.8 in SE 1.3 mph 5.6 mph 93% 0.0 in WeatherDisplay:10.37 W/m2 FEW
12:11 0.7 °F -0.3 °F 993.8 in Calm     93% 0.0 in WeatherDisplay:10.37 W/m2 FEW
12:16 0.7 °F -0.3 °F 993.8 in Calm     93% 0.0 in WeatherDisplay:10.37 W/m2 FEW
12:21 0.7 °F -0.3 °F 993.8 in Calm     93% 0.0 in WeatherDisplay:10.37 W/m2 FEW
12:26 0.7 °F -0.3 °F 993.8 in Calm     93% 0.0 in WeatherDisplay:10.37 W/m2 FEW
12:31 0.7 °F -0.3 °F 993.8 in Calm     93% 0.0 in WeatherDisplay:10.37 W/m2 FEW
12:36 0.7 °F -0.3 °F 993.8 in Calm     93% 0.0 in WeatherDisplay:10.37 W/m2 FEW
12:41 0.7 °F -0.3 °F 993.5 in Calm     93% 0.0 in WeatherDisplay:10.37 W/m2 FEW
12:42 0.7 °F -0.3 °F 993.5 in Calm     93% 0.0 in WeatherDisplay:10.37 W/m2 FEW
12:47 0.7 °F -0.3 °F 993.5 in Calm     93% 0.0 in WeatherDisplay:10.37 W/m2 FEW
12:52 0.7 °F -0.3 °F 993.5 in Calm     93% 0.0 in WeatherDisplay:10.37 W/m2 FEW
12:53 0.7 °F -0.3 °F 993.5 in Calm     93% 0.0 in WeatherDisplay:10.37 W/m2 FEW
12:59 0.7 °F -0.3 °F 993.8 in Calm     93% 0.0 in WeatherDisplay:10.37 W/m2 FEW
13:04 0.7 °F -0.3 °F 993.5 in Calm     93% 0.0 in WeatherDisplay:10.37 W/m2 FEW
13:09 0.7 °F -0.3 °F 993.5 in Calm     93% 0.0 in WeatherDisplay:10.37 W/m2 FEW
13:14 0.7 °F -0.3 °F 993.1 in SE 1.8 mph 3.2 mph 93% 0.0 in WeatherDisplay:10.37 W/m2 FEW
13:19 0.7 °F -0.3 °F 993.1 in Calm   1.9 mph 93% 0.0 in WeatherDisplay:10.37 W/m2 FEW
13:20 0.7 °F -0.3 °F 993.1 in Calm     93% 0.0 in WeatherDisplay:10.37 W/m2 FEW
13:25 0.7 °F -0.3 °F 993.1 in Calm     93% 0.0 in WeatherDisplay:10.37 W/m2 FEW
13:30 0.7 °F -0.3 °F 993.1 in Calm     93% 0.0 in WeatherDisplay:10.37 W/m2 FEW
13:32 0.7 °F -0.3 °F 993.1 in Calm   1.9 mph 93% 0.0 in WeatherDisplay:10.37 W/m2 FEW
13:37 0.7 °F -0.3 °F 993.1 in Calm     93% 0.0 in WeatherDisplay:10.37 W/m2 FEW
13:42 0.8 °F -0.2 °F 992.8 in Calm     93% 0.0 in WeatherDisplay:10.37 W/m2 FEW
13:43 0.8 °F -0.2 °F 992.8 in SE 1.8 mph 3.2 mph 93% 0.0 in WeatherDisplay:10.37 W/m2 FEW
13:49 0.8 °F -0.2 °F 993.1 in Calm     93% 0.0 in WeatherDisplay:10.37 W/m2 FEW
13:54 0.8 °F -0.2 °F 992.8 in Calm     93% 0.0 in WeatherDisplay:10.37 W/m2 FEW
13:59 0.8 °F -0.2 °F 992.8 in Calm     93% 0.0 in WeatherDisplay:10.37 W/m2 FEW
14:02 0.8 °F -0.2 °F 992.8 in SE 0.5 mph 3.7 mph 93% 0.0 in WeatherDisplay:10.37 W/m2 FEW
14:07 0.8 °F -0.2 °F 992.8 in SE 1.3 mph 1.6 mph 93% 0.0 in WeatherDisplay:10.37 W/m2 FEW
14:12 0.8 °F -0.2 °F 992.8 in Calm     93% 0.0 in WeatherDisplay:10.37 W/m2 FEW
14:13 0.8 °F -0.2 °F 992.8 in Calm     93% 0.0 in WeatherDisplay:10.37 W/m2 FEW
14:19 0.8 °F -0.2 °F 992.8 in Calm     93% 0.0 in WeatherDisplay:10.37 W/m2 FEW
14:24 0.8 °F -0.2 °F 992.8 in Calm     93% 0.0 in WeatherDisplay:10.37 W/m2 FEW
14:29 0.8 °F -0.2 °F 992.4 in Calm     93% 0.0 in WeatherDisplay:10.37 W/m2 FEW
14:30 0.8 °F -0.2 °F 992.4 in Calm     93% 0.0 in WeatherDisplay:10.37 W/m2 FEW
14:31 0.8 °F -0.2 °F 992.4 in Calm   1.9 mph 93% 0.0 in WeatherDisplay:10.37 W/m2 FEW
14:36 0.8 °F -0.2 °F 992.4 in Calm   3.7 mph 93% 0.0 in WeatherDisplay:10.37 W/m2 FEW
14:42 0.8 °F -0.2 °F 992.1 in Calm     93% 0.0 in WeatherDisplay:10.37 W/m2 FEW
14:46 0.8 °F -0.2 °F 992.1 in SE 0.2 mph 1.9 mph 93% 0.0 in WeatherDisplay:10.37 W/m2 FEW
14:51 0.9 °F -0.1 °F 992.1 in Calm     93% 0.0 in WeatherDisplay:10.37 W/m2 FEW
14:57 0.9 °F -0.1 °F 992.1 in Calm     93% 0.0 in WeatherDisplay:10.37 W/m2 FEW
15:01 0.9 °F -0.1 °F 992.4 in Calm     93% 0.0 in WeatherDisplay:10.37 W/m2 FEW
15:07 0.8 °F -0.2 °F 992.4 in SE 1.8 mph 5.6 mph 93% 0.0 in WeatherDisplay:10.37 W/m2 FEW
15:09 0.8 °F -0.2 °F 992.4 in Calm     93% 0.0 in WeatherDisplay:10.37 W/m2 FEW
15:14 0.8 °F -0.2 °F 992.1 in Calm     93% 0.0 in WeatherDisplay:10.37 W/m2 FEW
15:19 0.8 °F -0.2 °F 992.1 in SE 2.6 mph 5.6 mph 93% 0.0 in WeatherDisplay:10.37 W/m2 FEW
15:25 0.8 °F -0.2 °F 992.1 in SE 0.3 mph 3.7 mph 93% 0.0 in WeatherDisplay:10.37 W/m2 FEW
15:26 0.9 °F -0.1 °F 992.1 in Calm     93% 0.0 in WeatherDisplay:10.37 W/m2 FEW
15:28 0.9 °F -0.1 °F 992.1 in Calm     93% 0.0 in WeatherDisplay:10.37 W/m2 FEW
15:33 0.9 °F -0.1 °F 992.1 in Calm     93% 0.0 in WeatherDisplay:10.37 W/m2 FEW
15:38 0.9 °F -0.1 °F 992.1 in Calm     93% 0.0 in WeatherDisplay:10.37 W/m2 FEW
15:43 0.9 °F -0.1 °F 991.8 in SE 1.9 mph 5.6 mph 93% 0.0 in WeatherDisplay:10.37 W/m2 FEW
15:48 0.9 °F -0.1 °F 991.8 in SE 1.0 mph 3.7 mph 93% 0.0 in WeatherDisplay:10.37 W/m2 FEW
15:50 0.9 °F -0.1 °F 991.8 in SE 0.8 mph 7.4 mph 93% 0.0 in WeatherDisplay:10.37 W/m2 FEW
15:55 0.9 °F -0.1 °F 991.8 in Calm     93% 0.0 in WeatherDisplay:10.37 W/m2 FEW
16:00 0.9 °F -0.1 °F 991.4 in SE 1.3 mph 3.7 mph 93% 0.0 in WeatherDisplay:10.37 W/m2 FEW
16:03 0.9 °F -0.1 °F 991.4 in Calm   5.6 mph 93% 0.0 in WeatherDisplay:10.37 W/m2 FEW
16:08 0.9 °F -0.1 °F 991.4 in SE 0.2 mph 5.6 mph 93% 0.0 in WeatherDisplay:10.37 W/m2 FEW
16:12 0.9 °F -0.1 °F 991.4 in SE 1.1 mph 3.7 mph 93% 0.0 in WeatherDisplay:10.37 W/m2 FEW
16:17 0.9 °F -0.1 °F 991.4 in Calm   1.9 mph 93% 0.0 in WeatherDisplay:10.37 W/m2 FEW
16:19 0.9 °F -0.1 °F 991.4 in SE 0.6 mph 3.7 mph 93% 0.0 in WeatherDisplay:10.37 W/m2 FEW
16:24 0.9 °F -0.1 °F 991.4 in ESE 1.6 mph 5.6 mph 93% 0.0 in WeatherDisplay:10.37 W/m2 FEW
16:29 1.0 °F 0.0 °F 991.1 in ESE 2.7 mph 11.1 mph 93% 0.0 in WeatherDisplay:10.37 W/m2 FEW
16:34 1.0 °F 0.0 °F 991.1 in SE 0.3 mph 1.6 mph 93% 0.0 in WeatherDisplay:10.37 W/m2 FEW
16:39 1.0 °F 0.0 °F 991.1 in SE 1.1 mph 6.4 mph 93% 0.0 in WeatherDisplay:10.37 W/m2 FEW
16:44 1.1 °F 0.1 °F 991.1 in SE 0.8 mph 7.4 mph 93% 0.0 in WeatherDisplay:10.37 W/m2 FEW
16:49 1.1 °F 0.1 °F 990.7 in Calm     93% 0.0 in WeatherDisplay:10.37 W/m2 FEW
16:54 1.1 °F 0.1 °F 990.7 in East 1.9 mph 9.3 mph 93% 0.0 in WeatherDisplay:10.37 W/m2 FEW
16:59 1.1 °F 0.1 °F 990.7 in East 5.5 mph 5.6 mph 93% 0.0 in WeatherDisplay:10.37 W/m2 FEW
17:04 1.1 °F 0.1 °F 990.4 in East 1.1 mph 5.6 mph 93% 0.0 in WeatherDisplay:10.37 W/m2 FEW
17:06 1.1 °F 0.1 °F 990.4 in Calm     93% 0.0 in WeatherDisplay:10.37 W/m2 FEW
17:11 1.1 °F 0.1 °F 990.4 in East 1.3 mph 3.7 mph 93% 0.0 in WeatherDisplay:10.37 W/m2 FEW
17:16 1.1 °F 0.1 °F 990.1 in East 1.4 mph 5.6 mph 93% 0.0 in WeatherDisplay:10.37 W/m2 FEW
17:21 1.1 °F 0.1 °F 990.4 in SE 1.8 mph 5.6 mph 93% 0.0 in WeatherDisplay:10.37 W/m2 FEW
17:26 1.1 °F 0.1 °F 990.1 in ESE 3.2 mph 5.6 mph 93% 0.0 in WeatherDisplay:10.37 W/m2 FEW
17:31 1.1 °F 0.1 °F 990.1 in ESE 4.3 mph 5.6 mph 93% 0.0 in WeatherDisplay:10.37 W/m2 FEW
17:36 1.2 °F 0.2 °F 990.1 in ESE 0.3 mph 5.6 mph 93% 0.0 in WeatherDisplay:10.37 W/m2 FEW
17:41 1.2 °F 0.2 °F 990.1 in ESE 0.8 mph 9.3 mph 93% 0.0 in WeatherDisplay:10.37 W/m2 FEW
17:46 1.2 °F 0.2 °F 990.1 in Calm     93% 0.0 in WeatherDisplay:10.37 W/m2 FEW
17:51 1.2 °F 0.2 °F 990.1 in Calm   9.3 mph 93% 0.0 in WeatherDisplay:10.37 W/m2 FEW
17:53 1.2 °F 0.2 °F 990.1 in ESE 1.4 mph 5.6 mph 93% 0.0 in WeatherDisplay:10.37 W/m2 FEW
17:58 1.2 °F 0.2 °F 990.1 in Calm   5.6 mph 93% 0.0 in WeatherDisplay:10.37 W/m2 FEW
18:03 1.2 °F 0.2 °F 989.7 in SSE 4.3 mph 13.0 mph 93% 0.0 in WeatherDisplay:10.37 W/m2 FEW
18:08 1.2 °F 0.2 °F 989.7 in ESE 2.3 mph 5.6 mph 93% 0.0 in WeatherDisplay:10.37 W/m2 FEW
18:09 1.2 °F 0.2 °F 989.7 in ESE 1.8 mph 5.6 mph 93% 0.0 in WeatherDisplay:10.37 W/m2 FEW
18:14 1.3 °F 0.3 °F 989.7 in ESE 1.3 mph 3.2 mph 93% 0.0 in WeatherDisplay:10.37 W/m2 FEW
18:19 1.3 °F 0.3 °F 989.7 in ESE 1.4 mph 5.6 mph 93% 0.0 in WeatherDisplay:10.37 W/m2 FEW
18:24 1.3 °F 0.3 °F 989.7 in East 6.6 mph 13.0 mph 93% 0.3 in WeatherDisplay:10.37 W/m2 RA
18:28 1.3 °F 0.3 °F 989.7 in East 2.9 mph 5.6 mph 93% 0.3 in WeatherDisplay:10.37 W/m2 RA
18:34 1.4 °F 0.4 °F 989.7 in ESE 5.3 mph 16.7 mph 93% 0.3 in WeatherDisplay:10.37 W/m2 FEW
18:35 1.3 °F 0.3 °F 989.7 in ESE 1.4 mph 5.6 mph 93% 0.3 in WeatherDisplay:10.37 W/m2 FEW
18:41 1.3 °F 0.3 °F 989.7 in ESE 2.3 mph 5.6 mph 93% 0.3 in WeatherDisplay:10.37 W/m2 FEW
18:45 1.3 °F 0.3 °F 989.7 in ESE 2.4 mph 5.6 mph 93% 0.3 in WeatherDisplay:10.37 W/m2 FEW
18:50 1.3 °F 0.3 °F 989.7 in ESE 0.8 mph 5.6 mph 93% 0.3 in WeatherDisplay:10.37 W/m2 FEW
18:55 1.2 °F 0.2 °F 989.7 in ESE 0.2 mph 1.9 mph 93% 0.5 in WeatherDisplay:10.37 W/m2 RA
19:00 1.1 °F 0.1 °F 989.7 in SSE 0.5 mph 11.1 mph 93% 0.5 in WeatherDisplay:10.37 W/m2 RA
19:05 1.0 °F 0.0 °F 989.4 in Calm   3.7 mph 93% 0.8 in WeatherDisplay:10.37 W/m2 RA
19:06 0.9 °F -0.1 °F 989.4 in Calm     93% 0.8 in WeatherDisplay:10.37 W/m2 RA
19:11 0.8 °F 0.0 °F 989.4 in SE 0.2 mph 3.2 mph 94% 1.0 in WeatherDisplay:10.37 W/m2 RA
19:16 0.8 °F -0.2 °F 989.4 in Calm     93% 1.3 in WeatherDisplay:10.37 W/m2 RA
19:21 0.7 °F -0.3 °F 989.4 in Calm     93% 1.5 in WeatherDisplay:10.37 W/m2 RA
19:23 0.7 °F -0.3 °F 989.4 in Calm     93% 1.3 in WeatherDisplay:10.37 W/m2 RA
19:28 0.7 °F -0.3 °F 989.4 in Calm     93% 1.3 in WeatherDisplay:10.37 W/m2 RA
19:33 0.7 °F -0.3 °F 989.1 in Calm     93% 1.3 in WeatherDisplay:10.37 W/m2 FEW
19:38 0.7 °F -0.3 °F 989.1 in Calm     93% 1.3 in WeatherDisplay:10.37 W/m2 FEW
19:43 0.7 °F -0.3 °F 989.1 in Calm     93% 1.5 in WeatherDisplay:10.37 W/m2 RA
19:48 0.7 °F -0.3 °F 989.1 in SE 1.4 mph 5.6 mph 93% 1.5 in WeatherDisplay:10.37 W/m2 RA
19:53 0.7 °F -0.3 °F 988.7 in SE 2.6 mph 5.6 mph 93% 1.3 in WeatherDisplay:10.37 W/m2 FEW
19:58 0.7 °F -0.3 °F 988.7 in ESE 0.5 mph 3.7 mph 93% 1.0 in WeatherDisplay:10.37 W/m2 FEW
20:02 0.6 °F -0.4 °F 988.7 in Calm     93% 1.0 in WeatherDisplay:10.37 W/m2 FEW
20:07 0.6 °F -0.4 °F 988.7 in Calm   1.9 mph 93% 0.8 in WeatherDisplay:10.37 W/m2 FEW
20:12 0.6 °F -0.4 °F 988.7 in Calm   5.6 mph 93% 0.5 in WeatherDisplay:10.37 W/m2 FEW
20:17 0.6 °F -0.4 °F 988.7 in East 0.6 mph   93% 0.5 in WeatherDisplay:10.37 W/m2 FEW
20:19 0.6 °F -0.4 °F 988.4 in ESE 1.9 mph 5.6 mph 93% 0.5 in WeatherDisplay:10.37 W/m2 FEW
20:25 0.7 °F -0.3 °F 988.4 in Calm     93% 0.3 in WeatherDisplay:10.37 W/m2 FEW
20:30 0.6 °F -0.4 °F 988.4 in Calm     93% 0.3 in WeatherDisplay:10.37 W/m2 FEW
20:35 0.7 °F -0.3 °F 988.4 in Calm     93% 0.3 in WeatherDisplay:10.37 W/m2 FEW
20:41 0.7 °F -0.3 °F 988.4 in Calm   5.6 mph 93% 0.3 in WeatherDisplay:10.37 W/m2 FEW
20:46 0.7 °F -0.3 °F 988.4 in ESE 0.5 mph 5.6 mph 93% 0.0 in WeatherDisplay:10.37 W/m2 FEW
20:51 0.7 °F -0.3 °F 988.4 in ESE 0.3 mph 1.9 mph 93% 0.0 in WeatherDisplay:10.37 W/m2 FEW
20:56 0.7 °F -0.3 °F 988.4 in Calm     93% 0.0 in WeatherDisplay:10.37 W/m2 FEW
21:01 0.7 °F -0.3 °F 988.4 in Calm     93% 0.0 in WeatherDisplay:10.37 W/m2 FEW
21:05 0.7 °F -0.3 °F 988.4 in Calm     93% 0.0 in WeatherDisplay:10.37 W/m2 FEW
21:10 0.7 °F -0.3 °F 988.7 in Calm     93% 0.0 in WeatherDisplay:10.37 W/m2 FEW
21:13 0.7 °F -0.3 °F 988.4 in Calm     93% 0.0 in WeatherDisplay:10.37 W/m2 FEW
21:18 0.7 °F -0.3 °F 988.4 in Calm     93% 0.0 in WeatherDisplay:10.37 W/m2 FEW
21:20 0.7 °F -0.3 °F 988.4 in Calm     93% 0.0 in WeatherDisplay:10.37 W/m2 FEW
21:25 0.7 °F -0.3 °F 988.4 in ESE 1.1 mph 5.6 mph 93% 0.0 in WeatherDisplay:10.37 W/m2 FEW
21:29 0.8 °F -0.2 °F 988.7 in Calm     93% 0.0 in WeatherDisplay:10.37 W/m2 FEW
21:32 0.8 °F -0.2 °F 988.7 in Calm   1.9 mph 93% 0.0 in WeatherDisplay:10.37 W/m2 FEW
21:38 0.8 °F -0.2 °F 988.7 in Calm     93% 0.0 in WeatherDisplay:10.37 W/m2 FEW
21:39 0.8 °F -0.2 °F 988.7 in Calm     93% 0.0 in WeatherDisplay:10.37 W/m2 FEW
21:45 0.8 °F -0.2 °F 988.7 in Calm     93% 0.0 in WeatherDisplay:10.37 W/m2 FEW
21:50 0.8 °F -0.2 °F 988.7 in ESE 0.3 mph 1.9 mph 93% 0.0 in WeatherDisplay:10.37 W/m2 FEW
21:51 0.8 °F -0.2 °F 988.7 in Calm     93% 0.0 in WeatherDisplay:10.37 W/m2 FEW
21:56 0.7 °F -0.3 °F 988.7 in Calm     93% 0.0 in WeatherDisplay:10.37 W/m2 FEW
22:01 0.7 °F -0.3 °F 988.7 in Calm     93% 0.0 in WeatherDisplay:10.37 W/m2 FEW
22:06 0.7 °F -0.3 °F 988.7 in Calm     93% 0.0 in WeatherDisplay:10.37 W/m2 FEW
22:10 0.8 °F -0.2 °F 988.7 in Calm     93% 0.0 in WeatherDisplay:10.37 W/m2 FEW
22:15 0.8 °F -0.2 °F 988.7 in Calm     93% 0.0 in WeatherDisplay:10.37 W/m2 FEW
22:18 0.8 °F -0.2 °F 988.7 in Calm     93% 0.0 in WeatherDisplay:10.37 W/m2 FEW
22:23 0.8 °F -0.2 °F 988.7 in Calm     93% 0.0 in WeatherDisplay:10.37 W/m2 FEW
22:25 0.8 °F -0.2 °F 988.7 in Calm     93% 0.0 in WeatherDisplay:10.37 W/m2 FEW
22:28 0.8 °F -0.2 °F 988.7 in Calm     93% 0.0 in WeatherDisplay:10.37 W/m2 FEW
22:33 0.8 °F -0.2 °F 988.7 in Calm     93% 0.0 in WeatherDisplay:10.37 W/m2 FEW
22:39 0.8 °F -0.2 °F 988.7 in Calm     93% 0.0 in WeatherDisplay:10.37 W/m2 FEW
22:44 0.8 °F -0.2 °F 988.7 in Calm     93% 0.0 in WeatherDisplay:10.37 W/m2 FEW
22:46 0.8 °F -0.2 °F 988.7 in Calm     93% 0.0 in WeatherDisplay:10.37 W/m2 FEW
22:51 0.8 °F -0.2 °F 988.7 in Calm     93% 0.0 in WeatherDisplay:10.37 W/m2 FEW
22:56 0.8 °F -0.2 °F 988.7 in Calm     93% 0.3 in WeatherDisplay:10.37 W/m2 RA
23:02 0.8 °F -0.2 °F 988.7 in Calm     93% 0.3 in WeatherDisplay:10.37 W/m2 RA
23:07 0.8 °F -0.2 °F 988.7 in Calm     93% 0.3 in WeatherDisplay:10.37 W/m2 FEW
23:12 0.8 °F -0.2 °F 988.7 in Calm     93% 0.3 in WeatherDisplay:10.37 W/m2 FEW
23:17 0.8 °F -0.2 °F 988.7 in Calm     93% 0.3 in WeatherDisplay:10.37 W/m2 FEW
23:19 0.8 °F -0.2 °F 988.7 in Calm     93% 0.3 in WeatherDisplay:10.37 W/m2 FEW
23:25 0.8 °F -0.2 °F 988.7 in Calm     93% 0.3 in WeatherDisplay:10.37 W/m2 FEW
23:30 0.7 °F -0.3 °F 988.7 in Calm     93% 0.3 in WeatherDisplay:10.37 W/m2 FEW
23:35 0.7 °F -0.3 °F 988.7 in Calm     93% 0.3 in WeatherDisplay:10.37 W/m2 FEW
23:40 0.7 °F -0.3 °F 988.7 in ESE 0.2 mph 1.9 mph 93% 0.3 in WeatherDisplay:10.37 W/m2 FEW
23:45 0.8 °F -0.2 °F 988.7 in Calm     93% 0.3 in WeatherDisplay:10.37 W/m2 FEW
23:50 0.8 °F -0.2 °F 988.7 in Calm     93% 0.3 in WeatherDisplay:10.37 W/m2 FEW
23:55 0.8 °F 0.0 °F 988.7 in Calm     94% 0.0 in WeatherDisplay:10.37 W/m2 FEW
Tuulensuunkaari, Veikkola, Suomi
Compliments of Weather Underground - 2.75 mb